sensor_id;sensor_type;location;lat;lon;timestamp;P1;durP1;ratioP1;P2;durP2;ratioP2
595;SDS011;19946;49.306;11.350;2023-09-18T00:02:34;0.10;;;0.10;;
595;SDS011;19946;49.306;11.350;2023-09-18T00:05:34;0.10;;;0.10;;
595;SDS011;19946;49.306;11.350;2023-09-18T00:08:34;0.10;;;0.10;;
595;SDS011;19946;49.306;11.350;2023-09-18T00:11:34;0.10;;;0.10;;
595;SDS011;19946;49.306;11.350;2023-09-18T00:14:35;0.10;;;0.10;;
595;SDS011;19946;49.306;11.350;2023-09-18T00:17:36;0.10;;;0.10;;
595;SDS011;19946;49.306;11.350;2023-09-18T00:20:36;0.10;;;0.10;;
595;SDS011;19946;49.306;11.350;2023-09-18T00:23:37;0.10;;;0.10;;
595;SDS011;19946;49.306;11.350;2023-09-18T00:26:37;0.10;;;0.10;;
595;SDS011;19946;49.306;11.350;2023-09-18T00:29:38;0.10;;;0.10;;
595;SDS011;19946;49.306;11.350;2023-09-18T00:32:38;0.10;;;0.10;;
595;SDS011;19946;49.306;11.350;2023-09-18T00:35:38;0.07;;;0.07;;
595;SDS011;19946;49.306;11.350;2023-09-18T00:38:38;0.10;;;0.10;;
595;SDS011;19946;49.306;11.350;2023-09-18T00:41:38;0.00;;;0.00;;
595;SDS011;19946;49.306;11.350;2023-09-18T00:44:39;0.10;;;0.10;;
595;SDS011;19946;49.306;11.350;2023-09-18T00:47:41;0.10;;;0.10;;
595;SDS011;19946;49.306;11.350;2023-09-18T00:50:43;0.10;;;0.10;;
595;SDS011;19946;49.306;11.350;2023-09-18T00:53:44;0.10;;;0.10;;
595;SDS011;19946;49.306;11.350;2023-09-18T00:56:46;0.10;;;0.10;;
595;SDS011;19946;49.306;11.350;2023-09-18T00:59:48;0.10;;;0.10;;
595;SDS011;19946;49.306;11.350;2023-09-18T01:02:48;0.10;;;0.10;;
595;SDS011;19946;49.306;11.350;2023-09-18T01:05:48;0.10;;;0.10;;
595;SDS011;19946;49.306;11.350;2023-09-18T01:08:49;0.10;;;0.10;;
595;SDS011;19946;49.306;11.350;2023-09-18T01:12:05;0.10;;;0.10;;
595;SDS011;19946;49.306;11.350;2023-09-18T01:15:12;0.10;;;0.10;;
595;SDS011;19946;49.306;11.350;2023-09-18T01:18:13;0.10;;;0.10;;
595;SDS011;19946;49.306;11.350;2023-09-18T01:21:14;0.10;;;0.10;;
595;SDS011;19946;49.306;11.350;2023-09-18T01:24:14;0.10;;;0.10;;
595;SDS011;19946;49.306;11.350;2023-09-18T01:27:15;0.00;;;0.00;;
595;SDS011;19946;49.306;11.350;2023-09-18T01:30:17;0.10;;;0.10;;
595;SDS011;19946;49.306;11.350;2023-09-18T01:33:17;0.10;;;0.10;;
595;SDS011;19946;49.306;11.350;2023-09-18T01:36:18;0.10;;;0.10;;
595;SDS011;19946;49.306;11.350;2023-09-18T01:39:19;0.10;;;0.10;;
595;SDS011;19946;49.306;11.350;2023-09-18T01:42:20;0.10;;;0.10;;
595;SDS011;19946;49.306;11.350;2023-09-18T01:45:21;0.10;;;0.10;;
595;SDS011;19946;49.306;11.350;2023-09-18T01:48:21;0.10;;;0.10;;
595;SDS011;19946;49.306;11.350;2023-09-18T01:51:21;0.10;;;0.10;;
595;SDS011;19946;49.306;11.350;2023-09-18T01:54:22;0.10;;;0.10;;
595;SDS011;19946;49.306;11.350;2023-09-18T01:57:22;0.10;;;0.10;;
595;SDS011;19946;49.306;11.350;2023-09-18T02:00:24;0.10;;;0.10;;
595;SDS011;19946;49.306;11.350;2023-09-18T02:03:24;0.10;;;0.10;;
595;SDS011;19946;49.306;11.350;2023-09-18T02:06:24;0.10;;;0.10;;
595;SDS011;19946;49.306;11.350;2023-09-18T02:09:25;0.10;;;0.10;;
595;SDS011;19946;49.306;11.350;2023-09-18T02:12:25;0.00;;;0.00;;
595;SDS011;19946;49.306;11.350;2023-09-18T02:15:26;0.10;;;0.10;;
595;SDS011;19946;49.306;11.350;2023-09-18T02:18:26;0.10;;;0.10;;
595;SDS011;19946;49.306;11.350;2023-09-18T02:21:27;0.10;;;0.10;;
595;SDS011;19946;49.306;11.350;2023-09-18T02:24:27;0.10;;;0.10;;
595;SDS011;19946;49.306;11.350;2023-09-18T02:27:28;0.10;;;0.10;;
595;SDS011;19946;49.306;11.350;2023-09-18T02:30:28;0.10;;;0.10;;
595;SDS011;19946;49.306;11.350;2023-09-18T02:33:28;0.10;;;0.10;;
595;SDS011;19946;49.306;11.350;2023-09-18T02:36:28;0.10;;;0.10;;
595;SDS011;19946;49.306;11.350;2023-09-18T02:39:29;0.10;;;0.10;;
595;SDS011;19946;49.306;11.350;2023-09-18T02:42:29;0.10;;;0.10;;
595;SDS011;19946;49.306;11.350;2023-09-18T02:45:29;0.10;;;0.10;;
595;SDS011;19946;49.306;11.350;2023-09-18T02:48:29;0.20;;;0.20;;
595;SDS011;19946;49.306;11.350;2023-09-18T02:51:30;0.10;;;0.10;;
595;SDS011;19946;49.306;11.350;2023-09-18T02:54:32;0.10;;;0.10;;
595;SDS011;19946;49.306;11.350;2023-09-18T02:57:32;0.10;;;0.10;;
595;SDS011;19946;49.306;11.350;2023-09-18T03:00:33;0.10;;;0.10;;
595;SDS011;19946;49.306;11.350;2023-09-18T03:03:33;0.10;;;0.10;;
595;SDS011;19946;49.306;11.350;2023-09-18T03:06:33;0.10;;;0.10;;
595;SDS011;19946;49.306;11.350;2023-09-18T03:09:34;0.10;;;0.10;;
595;SDS011;19946;49.306;11.350;2023-09-18T03:12:35;0.10;;;0.10;;
595;SDS011;19946;49.306;11.350;2023-09-18T03:15:37;0.00;;;0.00;;
595;SDS011;19946;49.306;11.350;2023-09-18T03:18:37;0.10;;;0.10;;
595;SDS011;19946;49.306;11.350;2023-09-18T03:21:38;0.10;;;0.10;;
595;SDS011;19946;49.306;11.350;2023-09-18T03:24:39;0.10;;;0.10;;
595;SDS011;19946;49.306;11.350;2023-09-18T03:27:39;0.00;;;0.00;;
595;SDS011;19946;49.306;11.350;2023-09-18T03:30:41;0.00;;;0.00;;
595;SDS011;19946;49.306;11.350;2023-09-18T03:33:41;0.00;;;0.00;;
595;SDS011;19946;49.306;11.350;2023-09-18T03:36:41;0.00;;;0.00;;
595;SDS011;19946;49.306;11.350;2023-09-18T03:39:42;0.00;;;0.00;;
595;SDS011;19946;49.306;11.350;2023-09-18T03:42:42;0.10;;;0.10;;
595;SDS011;19946;49.306;11.350;2023-09-18T03:45:42;0.00;;;0.00;;
595;SDS011;19946;49.306;11.350;2023-09-18T03:48:43;0.00;;;0.00;;
595;SDS011;19946;49.306;11.350;2023-09-18T03:51:43;0.10;;;0.10;;
595;SDS011;19946;49.306;11.350;2023-09-18T03:54:44;0.03;;;0.03;;
595;SDS011;19946;49.306;11.350;2023-09-18T03:57:45;0.00;;;0.00;;
595;SDS011;19946;49.306;11.350;2023-09-18T04:00:48;0.03;;;0.03;;
595;SDS011;19946;49.306;11.350;2023-09-18T04:03:49;0.00;;;0.00;;
595;SDS011;19946;49.306;11.350;2023-09-18T04:06:49;0.00;;;0.00;;
595;SDS011;19946;49.306;11.350;2023-09-18T04:09:50;0.10;;;0.10;;
595;SDS011;19946;49.306;11.350;2023-09-18T04:12:50;0.10;;;0.10;;
595;SDS011;19946;49.306;11.350;2023-09-18T04:15:51;0.10;;;0.10;;
595;SDS011;19946;49.306;11.350;2023-09-18T04:18:57;0.10;;;0.10;;
595;SDS011;19946;49.306;11.350;2023-09-18T04:21:58;0.10;;;0.10;;
595;SDS011;19946;49.306;11.350;2023-09-18T04:24:58;0.10;;;0.10;;
595;SDS011;19946;49.306;11.350;2023-09-18T04:27:58;0.10;;;0.10;;
595;SDS011;19946;49.306;11.350;2023-09-18T04:30:58;0.10;;;0.10;;
595;SDS011;19946;49.306;11.350;2023-09-18T04:34:00;0.10;;;0.10;;
595;SDS011;19946;49.306;11.350;2023-09-18T04:37:00;0.13;;;0.13;;
595;SDS011;19946;49.306;11.350;2023-09-18T04:40:01;0.10;;;0.10;;
595;SDS011;19946;49.306;11.350;2023-09-18T04:43:01;0.10;;;0.10;;
595;SDS011;19946;49.306;11.350;2023-09-18T04:46:04;0.10;;;0.10;;
595;SDS011;19946;49.306;11.350;2023-09-18T04:49:06;0.10;;;0.10;;
595;SDS011;19946;49.306;11.350;2023-09-18T04:52:07;0.10;;;0.10;;
595;SDS011;19946;49.306;11.350;2023-09-18T04:55:07;0.10;;;0.10;;
595;SDS011;19946;49.306;11.350;2023-09-18T04:58:08;0.10;;;0.10;;
595;SDS011;19946;49.306;11.350;2023-09-18T05:01:08;0.10;;;0.10;;
595;SDS011;19946;49.306;11.350;2023-09-18T05:04:12;0.10;;;0.10;;
595;SDS011;19946;49.306;11.350;2023-09-18T05:07:14;0.10;;;0.10;;
595;SDS011;19946;49.306;11.350;2023-09-18T05:10:14;0.10;;;0.10;;
595;SDS011;19946;49.306;11.350;2023-09-18T05:13:14;0.10;;;0.10;;
595;SDS011;19946;49.306;11.350;2023-09-18T05:16:16;0.20;;;0.20;;
595;SDS011;19946;49.306;11.350;2023-09-18T05:19:17;0.10;;;0.10;;
595;SDS011;19946;49.306;11.350;2023-09-18T05:22:18;0.20;;;0.20;;
595;SDS011;19946;49.306;11.350;2023-09-18T05:25:18;0.10;;;0.10;;
595;SDS011;19946;49.306;11.350;2023-09-18T05:28:19;0.10;;;0.10;;
595;SDS011;19946;49.306;11.350;2023-09-18T05:31:19;0.20;;;0.20;;
595;SDS011;19946;49.306;11.350;2023-09-18T05:34:19;0.20;;;0.20;;
595;SDS011;19946;49.306;11.350;2023-09-18T05:37:19;0.20;;;0.20;;
595;SDS011;19946;49.306;11.350;2023-09-18T05:40:20;0.20;;;0.20;;
595;SDS011;19946;49.306;11.350;2023-09-18T05:43:20;0.17;;;0.17;;
595;SDS011;19946;49.306;11.350;2023-09-18T05:46:20;0.10;;;0.10;;
595;SDS011;19946;49.306;11.350;2023-09-18T05:49:20;0.10;;;0.10;;
595;SDS011;19946;49.306;11.350;2023-09-18T05:52:21;0.10;;;0.10;;
595;SDS011;19946;49.306;11.350;2023-09-18T05:55:23;0.10;;;0.10;;
595;SDS011;19946;49.306;11.350;2023-09-18T05:58:24;0.10;;;0.10;;
595;SDS011;19946;49.306;11.350;2023-09-18T06:01:26;0.10;;;0.10;;
595;SDS011;19946;49.306;11.350;2023-09-18T06:04:27;0.10;;;0.10;;
595;SDS011;19946;49.306;11.350;2023-09-18T06:07:28;0.10;;;0.10;;
595;SDS011;19946;49.306;11.350;2023-09-18T06:10:28;0.10;;;0.10;;
595;SDS011;19946;49.306;11.350;2023-09-18T06:13:28;0.20;;;0.20;;
595;SDS011;19946;49.306;11.350;2023-09-18T06:16:29;0.20;;;0.20;;
595;SDS011;19946;49.306;11.350;2023-09-18T06:19:30;0.30;;;0.30;;
595;SDS011;19946;49.306;11.350;2023-09-18T06:22:30;0.20;;;0.20;;
595;SDS011;19946;49.306;11.350;2023-09-18T06:25:31;0.10;;;0.10;;
595;SDS011;19946;49.306;11.350;2023-09-18T06:28:31;0.20;;;0.20;;
595;SDS011;19946;49.306;11.350;2023-09-18T06:31:31;0.20;;;0.20;;
595;SDS011;19946;49.306;11.350;2023-09-18T06:34:32;0.10;;;0.10;;
595;SDS011;19946;49.306;11.350;2023-09-18T06:37:32;0.20;;;0.20;;
595;SDS011;19946;49.306;11.350;2023-09-18T06:40:32;0.10;;;0.10;;
595;SDS011;19946;49.306;11.350;2023-09-18T06:43:32;0.10;;;0.10;;
595;SDS011;19946;49.306;11.350;2023-09-18T06:46:33;0.20;;;0.20;;
595;SDS011;19946;49.306;11.350;2023-09-18T06:49:33;0.10;;;0.10;;
595;SDS011;19946;49.306;11.350;2023-09-18T06:52:34;0.20;;;0.20;;
595;SDS011;19946;49.306;11.350;2023-09-18T06:55:34;0.10;;;0.10;;
595;SDS011;19946;49.306;11.350;2023-09-18T06:58:35;0.10;;;0.10;;
595;SDS011;19946;49.306;11.350;2023-09-18T07:01:35;0.20;;;0.20;;
595;SDS011;19946;49.306;11.350;2023-09-18T07:04:35;0.20;;;0.20;;
595;SDS011;19946;49.306;11.350;2023-09-18T07:07:37;0.20;;;0.20;;
595;SDS011;19946;49.306;11.350;2023-09-18T07:10:37;0.20;;;0.20;;
595;SDS011;19946;49.306;11.350;2023-09-18T07:13:38;0.23;;;0.23;;
595;SDS011;19946;49.306;11.350;2023-09-18T07:16:38;0.30;;;0.30;;
595;SDS011;19946;49.306;11.350;2023-09-18T07:19:38;0.20;;;0.20;;
595;SDS011;19946;49.306;11.350;2023-09-18T07:22:46;0.20;;;0.20;;
595;SDS011;19946;49.306;11.350;2023-09-18T07:25:47;0.27;;;0.27;;
595;SDS011;19946;49.306;11.350;2023-09-18T07:28:47;0.30;;;0.30;;
595;SDS011;19946;49.306;11.350;2023-09-18T07:31:48;0.30;;;0.30;;
595;SDS011;19946;49.306;11.350;2023-09-18T07:34:48;0.30;;;0.30;;
595;SDS011;19946;49.306;11.350;2023-09-18T07:37:49;0.30;;;0.30;;
595;SDS011;19946;49.306;11.350;2023-09-18T07:40:50;0.30;;;0.30;;
595;SDS011;19946;49.306;11.350;2023-09-18T07:43:50;0.30;;;0.30;;
595;SDS011;19946;49.306;11.350;2023-09-18T07:46:50;0.30;;;0.30;;
595;SDS011;19946;49.306;11.350;2023-09-18T07:49:51;0.30;;;0.30;;
595;SDS011;19946;49.306;11.350;2023-09-18T07:52:51;0.40;;;0.40;;
595;SDS011;19946;49.306;11.350;2023-09-18T07:55:55;0.40;;;0.40;;
595;SDS011;19946;49.306;11.350;2023-09-18T07:58:56;0.40;;;0.40;;
595;SDS011;19946;49.306;11.350;2023-09-18T08:01:56;0.50;;;0.50;;
595;SDS011;19946;49.306;11.350;2023-09-18T08:04:57;0.40;;;0.40;;
595;SDS011;19946;49.306;11.350;2023-09-18T08:07:58;0.40;;;0.40;;
595;SDS011;19946;49.306;11.350;2023-09-18T08:11:00;0.40;;;0.40;;
595;SDS011;19946;49.306;11.350;2023-09-18T08:14:01;0.40;;;0.40;;
595;SDS011;19946;49.306;11.350;2023-09-18T08:17:02;0.43;;;0.43;;
595;SDS011;19946;49.306;11.350;2023-09-18T08:20:04;0.60;;;0.60;;
595;SDS011;19946;49.306;11.350;2023-09-18T08:23:12;0.57;;;0.57;;
595;SDS011;19946;49.306;11.350;2023-09-18T08:26:12;0.60;;;0.60;;
595;SDS011;19946;49.306;11.350;2023-09-18T08:29:12;0.83;;;0.83;;
595;SDS011;19946;49.306;11.350;2023-09-18T08:32:13;1.00;;;1.00;;
595;SDS011;19946;49.306;11.350;2023-09-18T08:35:13;1.07;;;1.07;;
595;SDS011;19946;49.306;11.350;2023-09-18T08:38:14;0.80;;;0.80;;
595;SDS011;19946;49.306;11.350;2023-09-18T08:41:14;1.10;;;1.10;;
595;SDS011;19946;49.306;11.350;2023-09-18T08:44:17;0.80;;;0.80;;
595;SDS011;19946;49.306;11.350;2023-09-18T08:47:18;0.83;;;0.83;;
595;SDS011;19946;49.306;11.350;2023-09-18T08:50:18;1.13;;;1.10;;
595;SDS011;19946;49.306;11.350;2023-09-18T08:53:19;0.83;;;0.83;;
595;SDS011;19946;49.306;11.350;2023-09-18T08:56:20;1.07;;;1.07;;
595;SDS011;19946;49.306;11.350;2023-09-18T08:59:21;0.80;;;0.80;;
595;SDS011;19946;49.306;11.350;2023-09-18T09:02:22;1.90;;;1.20;;
595;SDS011;19946;49.306;11.350;2023-09-18T09:05:22;0.90;;;0.90;;
595;SDS011;19946;49.306;11.350;2023-09-18T09:08:22;1.40;;;1.30;;
595;SDS011;19946;49.306;11.350;2023-09-18T09:11:23;0.73;;;0.73;;
595;SDS011;19946;49.306;11.350;2023-09-18T09:14:23;1.17;;;1.10;;
595;SDS011;19946;49.306;11.350;2023-09-18T09:17:28;1.77;;;1.10;;
595;SDS011;19946;49.306;11.350;2023-09-18T09:20:28;1.50;;;1.07;;
595;SDS011;19946;49.306;11.350;2023-09-18T09:23:29;0.70;;;0.70;;
595;SDS011;19946;49.306;11.350;2023-09-18T09:26:30;0.83;;;0.80;;
595;SDS011;19946;49.306;11.350;2023-09-18T09:29:30;0.50;;;0.50;;
595;SDS011;19946;49.306;11.350;2023-09-18T09:32:31;0.77;;;0.77;;
595;SDS011;19946;49.306;11.350;2023-09-18T09:35:33;0.60;;;0.60;;
595;SDS011;19946;49.306;11.350;2023-09-18T09:38:34;0.43;;;0.43;;
595;SDS011;19946;49.306;11.350;2023-09-18T09:41:34;0.60;;;0.60;;
595;SDS011;19946;49.306;11.350;2023-09-18T09:44:35;0.80;;;0.80;;
595;SDS011;19946;49.306;11.350;2023-09-18T09:47:35;1.23;;;1.13;;
595;SDS011;19946;49.306;11.350;2023-09-18T09:50:46;1.77;;;0.97;;
595;SDS011;19946;49.306;11.350;2023-09-18T09:53:50;0.67;;;0.67;;
595;SDS011;19946;49.306;11.350;2023-09-18T09:56:51;0.90;;;0.90;;
595;SDS011;19946;49.306;11.350;2023-09-18T09:59:51;0.70;;;0.70;;
595;SDS011;19946;49.306;11.350;2023-09-18T10:02:55;0.73;;;0.70;;
595;SDS011;19946;49.306;11.350;2023-09-18T10:05:56;0.50;;;0.50;;
595;SDS011;19946;49.306;11.350;2023-09-18T10:08:58;0.80;;;0.80;;
595;SDS011;19946;49.306;11.350;2023-09-18T10:11:58;0.50;;;0.50;;
595;SDS011;19946;49.306;11.350;2023-09-18T10:14:59;0.50;;;0.50;;
595;SDS011;19946;49.306;11.350;2023-09-18T10:18:00;0.47;;;0.47;;
595;SDS011;19946;49.306;11.350;2023-09-18T10:21:06;0.40;;;0.40;;
595;SDS011;19946;49.306;11.350;2023-09-18T10:24:17;0.57;;;0.57;;
595;SDS011;19946;49.306;11.350;2023-09-18T10:27:18;0.47;;;0.47;;
595;SDS011;19946;49.306;11.350;2023-09-18T10:30:21;0.57;;;0.57;;
595;SDS011;19946;49.306;11.350;2023-09-18T10:33:23;0.40;;;0.40;;
595;SDS011;19946;49.306;11.350;2023-09-18T10:36:23;0.43;;;0.43;;
595;SDS011;19946;49.306;11.350;2023-09-18T10:39:24;0.43;;;0.43;;
595;SDS011;19946;49.306;11.350;2023-09-18T10:42:26;0.70;;;0.67;;
595;SDS011;19946;49.306;11.350;2023-09-18T10:45:27;0.53;;;0.50;;
595;SDS011;19946;49.306;11.350;2023-09-18T10:48:27;0.53;;;0.53;;
595;SDS011;19946;49.306;11.350;2023-09-18T10:51:28;0.87;;;0.50;;
595;SDS011;19946;49.306;11.350;2023-09-18T10:54:29;0.40;;;0.40;;
595;SDS011;19946;49.306;11.350;2023-09-18T10:57:36;0.33;;;0.33;;
595;SDS011;19946;49.306;11.350;2023-09-18T11:00:36;0.20;;;0.20;;
595;SDS011;19946;49.306;11.350;2023-09-18T11:03:37;0.37;;;0.37;;
595;SDS011;19946;49.306;11.350;2023-09-18T11:07:20;0.60;;;0.60;;
595;SDS011;19946;49.306;11.350;2023-09-18T11:10:19;0.40;;;0.40;;
595;SDS011;19946;49.306;11.350;2023-09-18T11:13:28;0.30;;;0.30;;
595;SDS011;19946;49.306;11.350;2023-09-18T11:19:28;0.27;;;0.27;;
595;SDS011;19946;49.306;11.350;2023-09-18T11:22:29;0.30;;;0.30;;
595;SDS011;19946;49.306;11.350;2023-09-18T11:25:30;0.80;;;0.53;;
595;SDS011;19946;49.306;11.350;2023-09-18T11:28:47;0.30;;;0.30;;
595;SDS011;19946;49.306;11.350;2023-09-18T11:31:53;0.30;;;0.30;;
595;SDS011;19946;49.306;11.350;2023-09-18T11:35:05;0.23;;;0.23;;
595;SDS011;19946;49.306;11.350;2023-09-18T11:38:07;0.30;;;0.30;;
595;SDS011;19946;49.306;11.350;2023-09-18T11:41:21;0.30;;;0.30;;
595;SDS011;19946;49.306;11.350;2023-09-18T11:47:28;0.37;;;0.37;;
595;SDS011;19946;49.306;11.350;2023-09-18T11:50:29;0.20;;;0.20;;
595;SDS011;19946;49.306;11.350;2023-09-18T11:53:33;0.40;;;0.40;;
595;SDS011;19946;49.306;11.350;2023-09-18T11:56:33;0.20;;;0.20;;
595;SDS011;19946;49.306;11.350;2023-09-18T11:59:34;0.30;;;0.30;;
595;SDS011;19946;49.306;11.350;2023-09-18T12:02:36;0.20;;;0.20;;
595;SDS011;19946;49.306;11.350;2023-09-18T12:05:38;0.20;;;0.20;;
595;SDS011;19946;49.306;11.350;2023-09-18T12:08:39;0.20;;;0.20;;
595;SDS011;19946;49.306;11.350;2023-09-18T12:11:41;0.20;;;0.20;;
595;SDS011;19946;49.306;11.350;2023-09-18T12:14:41;0.10;;;0.10;;
595;SDS011;19946;49.306;11.350;2023-09-18T12:17:42;0.10;;;0.10;;
595;SDS011;19946;49.306;11.350;2023-09-18T12:20:48;0.10;;;0.10;;
595;SDS011;19946;49.306;11.350;2023-09-18T12:23:49;0.10;;;0.10;;
595;SDS011;19946;49.306;11.350;2023-09-18T12:26:50;0.10;;;0.10;;
595;SDS011;19946;49.306;11.350;2023-09-18T12:29:51;0.20;;;0.20;;
595;SDS011;19946;49.306;11.350;2023-09-18T12:32:52;0.10;;;0.10;;
595;SDS011;19946;49.306;11.350;2023-09-18T12:35:52;0.10;;;0.10;;
595;SDS011;19946;49.306;11.350;2023-09-18T12:38:56;0.10;;;0.10;;
595;SDS011;19946;49.306;11.350;2023-09-18T12:42:00;0.10;;;0.10;;
595;SDS011;19946;49.306;11.350;2023-09-18T12:45:00;0.10;;;0.10;;
595;SDS011;19946;49.306;11.350;2023-09-18T12:52:04;0.00;;;0.00;;
595;SDS011;19946;49.306;11.350;2023-09-18T12:55:06;0.10;;;0.10;;
595;SDS011;19946;49.306;11.350;2023-09-18T12:58:09;0.10;;;0.10;;
595;SDS011;19946;49.306;11.350;2023-09-18T13:01:10;0.10;;;0.10;;
595;SDS011;19946;49.306;11.350;2023-09-18T13:04:12;0.00;;;0.00;;
595;SDS011;19946;49.306;11.350;2023-09-18T13:07:13;0.00;;;0.00;;
595;SDS011;19946;49.306;11.350;2023-09-18T13:10:13;0.00;;;0.00;;
595;SDS011;19946;49.306;11.350;2023-09-18T13:13:21;0.00;;;0.00;;
595;SDS011;19946;49.306;11.350;2023-09-18T13:16:22;0.00;;;0.00;;
595;SDS011;19946;49.306;11.350;2023-09-18T13:19:22;0.07;;;0.07;;
595;SDS011;19946;49.306;11.350;2023-09-18T13:22:23;0.00;;;0.00;;
595;SDS011;19946;49.306;11.350;2023-09-18T13:25:25;0.00;;;0.00;;
595;SDS011;19946;49.306;11.350;2023-09-18T13:28:26;0.00;;;0.00;;
595;SDS011;19946;49.306;11.350;2023-09-18T13:31:26;0.00;;;0.00;;
595;SDS011;19946;49.306;11.350;2023-09-18T13:34:28;0.00;;;0.00;;
595;SDS011;19946;49.306;11.350;2023-09-18T13:37:30;0.00;;;0.00;;
595;SDS011;19946;49.306;11.350;2023-09-18T13:40:30;0.00;;;0.00;;
595;SDS011;19946;49.306;11.350;2023-09-18T13:43:33;0.00;;;0.00;;
595;SDS011;19946;49.306;11.350;2023-09-18T13:46:36;0.00;;;0.00;;
595;SDS011;19946;49.306;11.350;2023-09-18T13:49:36;0.00;;;0.00;;
595;SDS011;19946;49.306;11.350;2023-09-18T13:52:36;0.00;;;0.00;;
595;SDS011;19946;49.306;11.350;2023-09-18T13:55:37;0.00;;;0.00;;
595;SDS011;19946;49.306;11.350;2023-09-18T13:58:37;0.00;;;0.00;;
595;SDS011;19946;49.306;11.350;2023-09-18T14:01:41;0.00;;;0.00;;
595;SDS011;19946;49.306;11.350;2023-09-18T14:04:41;0.00;;;0.00;;
595;SDS011;19946;49.306;11.350;2023-09-18T14:07:42;0.00;;;0.00;;
595;SDS011;19946;49.306;11.350;2023-09-18T14:10:42;0.00;;;0.00;;
595;SDS011;19946;49.306;11.350;2023-09-18T14:13:43;0.00;;;0.00;;
595;SDS011;19946;49.306;11.350;2023-09-18T14:16:43;0.00;;;0.00;;
595;SDS011;19946;49.306;11.350;2023-09-18T14:19:43;0.00;;;0.00;;
595;SDS011;19946;49.306;11.350;2023-09-18T14:22:44;0.00;;;0.00;;
595;SDS011;19946;49.306;11.350;2023-09-18T14:25:44;0.00;;;0.00;;
595;SDS011;19946;49.306;11.350;2023-09-18T14:28:45;0.00;;;0.00;;
595;SDS011;19946;49.306;11.350;2023-09-18T14:31:46;0.00;;;0.00;;
595;SDS011;19946;49.306;11.350;2023-09-18T14:34:47;0.00;;;0.00;;
595;SDS011;19946;49.306;11.350;2023-09-18T14:37:47;0.00;;;0.00;;
595;SDS011;19946;49.306;11.350;2023-09-18T14:40:47;0.00;;;0.00;;
595;SDS011;19946;49.306;11.350;2023-09-18T14:43:47;0.00;;;0.00;;
595;SDS011;19946;49.306;11.350;2023-09-18T14:46:47;0.00;;;0.00;;
595;SDS011;19946;49.306;11.350;2023-09-18T14:49:48;0.00;;;0.00;;
595;SDS011;19946;49.306;11.350;2023-09-18T14:52:48;0.00;;;0.00;;
595;SDS011;19946;49.306;11.350;2023-09-18T14:55:48;0.00;;;0.00;;
595;SDS011;19946;49.306;11.350;2023-09-18T14:58:49;0.00;;;0.00;;
595;SDS011;19946;49.306;11.350;2023-09-18T15:01:51;0.00;;;0.00;;
595;SDS011;19946;49.306;11.350;2023-09-18T15:04:51;0.00;;;0.00;;
595;SDS011;19946;49.306;11.350;2023-09-18T15:07:52;0.00;;;0.00;;
595;SDS011;19946;49.306;11.350;2023-09-18T15:10:53;0.00;;;0.00;;
595;SDS011;19946;49.306;11.350;2023-09-18T15:13:53;0.00;;;0.00;;
595;SDS011;19946;49.306;11.350;2023-09-18T15:16:54;0.00;;;0.00;;
595;SDS011;19946;49.306;11.350;2023-09-18T15:19:55;0.00;;;0.00;;
595;SDS011;19946;49.306;11.350;2023-09-18T15:22:56;0.00;;;0.00;;
595;SDS011;19946;49.306;11.350;2023-09-18T15:25:56;0.00;;;0.00;;
595;SDS011;19946;49.306;11.350;2023-09-18T15:28:57;0.00;;;0.00;;
595;SDS011;19946;49.306;11.350;2023-09-18T15:31:57;0.00;;;0.00;;
595;SDS011;19946;49.306;11.350;2023-09-18T15:34:57;0.07;;;0.07;;
595;SDS011;19946;49.306;11.350;2023-09-18T15:37:58;0.00;;;0.00;;
595;SDS011;19946;49.306;11.350;2023-09-18T15:40:59;0.00;;;0.00;;
595;SDS011;19946;49.306;11.350;2023-09-18T15:44:00;0.00;;;0.00;;
595;SDS011;19946;49.306;11.350;2023-09-18T15:47:01;0.00;;;0.00;;
595;SDS011;19946;49.306;11.350;2023-09-18T15:50:01;0.00;;;0.00;;
595;SDS011;19946;49.306;11.350;2023-09-18T15:53:01;0.00;;;0.00;;
595;SDS011;19946;49.306;11.350;2023-09-18T15:56:02;0.00;;;0.00;;
595;SDS011;19946;49.306;11.350;2023-09-18T15:59:03;0.00;;;0.00;;
595;SDS011;19946;49.306;11.350;2023-09-18T16:02:04;0.00;;;0.00;;
595;SDS011;19946;49.306;11.350;2023-09-18T16:05:06;0.00;;;0.00;;
595;SDS011;19946;49.306;11.350;2023-09-18T16:08:07;0.00;;;0.00;;
595;SDS011;19946;49.306;11.350;2023-09-18T16:11:07;0.00;;;0.00;;
595;SDS011;19946;49.306;11.350;2023-09-18T16:14:07;0.00;;;0.00;;
595;SDS011;19946;49.306;11.350;2023-09-18T16:17:08;0.00;;;0.00;;
595;SDS011;19946;49.306;11.350;2023-09-18T16:20:08;0.00;;;0.00;;
595;SDS011;19946;49.306;11.350;2023-09-18T16:23:08;0.00;;;0.00;;
595;SDS011;19946;49.306;11.350;2023-09-18T16:26:09;0.00;;;0.00;;
595;SDS011;19946;49.306;11.350;2023-09-18T16:29:10;0.00;;;0.00;;
595;SDS011;19946;49.306;11.350;2023-09-18T16:32:10;0.00;;;0.00;;
595;SDS011;19946;49.306;11.350;2023-09-18T16:35:10;0.00;;;0.00;;
595;SDS011;19946;49.306;11.350;2023-09-18T16:38:12;0.00;;;0.00;;
595;SDS011;19946;49.306;11.350;2023-09-18T16:41:12;0.00;;;0.00;;
595;SDS011;19946;49.306;11.350;2023-09-18T16:44:12;0.00;;;0.00;;
595;SDS011;19946;49.306;11.350;2023-09-18T16:47:13;0.00;;;0.00;;
595;SDS011;19946;49.306;11.350;2023-09-18T16:50:13;0.10;;;0.10;;
595;SDS011;19946;49.306;11.350;2023-09-18T16:53:13;0.00;;;0.00;;
595;SDS011;19946;49.306;11.350;2023-09-18T16:56:14;0.10;;;0.10;;
595;SDS011;19946;49.306;11.350;2023-09-18T16:59:14;0.00;;;0.00;;
595;SDS011;19946;49.306;11.350;2023-09-18T17:02:18;0.00;;;0.00;;
595;SDS011;19946;49.306;11.350;2023-09-18T17:05:19;0.00;;;0.00;;
595;SDS011;19946;49.306;11.350;2023-09-18T17:08:19;0.10;;;0.10;;
595;SDS011;19946;49.306;11.350;2023-09-18T17:11:20;0.10;;;0.10;;
595;SDS011;19946;49.306;11.350;2023-09-18T17:14:20;0.10;;;0.10;;
595;SDS011;19946;49.306;11.350;2023-09-18T17:17:20;0.10;;;0.10;;
595;SDS011;19946;49.306;11.350;2023-09-18T17:20:21;0.10;;;0.10;;
595;SDS011;19946;49.306;11.350;2023-09-18T17:23:22;0.10;;;0.10;;
595;SDS011;19946;49.306;11.350;2023-09-18T17:26:23;0.10;;;0.10;;
595;SDS011;19946;49.306;11.350;2023-09-18T17:29:23;0.10;;;0.10;;
595;SDS011;19946;49.306;11.350;2023-09-18T17:32:23;0.20;;;0.20;;
595;SDS011;19946;49.306;11.350;2023-09-18T17:35:23;0.20;;;0.20;;
595;SDS011;19946;49.306;11.350;2023-09-18T17:38:24;0.20;;;0.20;;
595;SDS011;19946;49.306;11.350;2023-09-18T17:41:24;0.20;;;0.20;;
595;SDS011;19946;49.306;11.350;2023-09-18T17:44:25;0.23;;;0.23;;
595;SDS011;19946;49.306;11.350;2023-09-18T17:47:25;0.30;;;0.30;;
595;SDS011;19946;49.306;11.350;2023-09-18T17:50:25;0.20;;;0.20;;
595;SDS011;19946;49.306;11.350;2023-09-18T17:53:25;0.10;;;0.10;;
595;SDS011;19946;49.306;11.350;2023-09-18T17:56:26;0.10;;;0.10;;
595;SDS011;19946;49.306;11.350;2023-09-18T17:59:26;0.10;;;0.10;;
595;SDS011;19946;49.306;11.350;2023-09-18T18:02:28;0.10;;;0.10;;
595;SDS011;19946;49.306;11.350;2023-09-18T18:05:28;0.10;;;0.10;;
595;SDS011;19946;49.306;11.350;2023-09-18T18:08:28;0.10;;;0.10;;
595;SDS011;19946;49.306;11.350;2023-09-18T18:11:29;0.10;;;0.10;;
595;SDS011;19946;49.306;11.350;2023-09-18T18:14:29;0.00;;;0.00;;
595;SDS011;19946;49.306;11.350;2023-09-18T18:17:29;0.00;;;0.00;;
595;SDS011;19946;49.306;11.350;2023-09-18T18:20:29;0.10;;;0.10;;
595;SDS011;19946;49.306;11.350;2023-09-18T18:23:30;0.00;;;0.00;;
595;SDS011;19946;49.306;11.350;2023-09-18T18:26:30;0.10;;;0.10;;
595;SDS011;19946;49.306;11.350;2023-09-18T18:29:32;0.10;;;0.10;;
595;SDS011;19946;49.306;11.350;2023-09-18T18:32:32;0.10;;;0.10;;
595;SDS011;19946;49.306;11.350;2023-09-18T18:35:32;0.10;;;0.10;;
595;SDS011;19946;49.306;11.350;2023-09-18T18:38:33;0.00;;;0.00;;